createdAt,value
2024-03-02T00:02:13.588Z,8.02
2024-03-02T00:05:23.924Z,8.02
2024-03-02T00:08:27.475Z,8.09
2024-03-02T00:11:30.351Z,8.12
2024-03-02T00:14:33.276Z,8.12
2024-03-02T00:17:36.061Z,8.06
2024-03-02T00:20:38.809Z,8.04
2024-03-02T00:23:41.681Z,8.02
2024-03-02T00:26:46.726Z,8.00
2024-03-02T00:29:49.504Z,7.98
2024-03-02T00:32:54.565Z,7.92
2024-03-02T00:35:57.868Z,7.91
2024-03-02T00:39:00.807Z,7.92
2024-03-02T00:42:03.856Z,7.91
2024-03-02T00:45:09.406Z,7.92
2024-03-02T00:48:12.228Z,7.90
2024-03-02T00:51:14.949Z,7.95
2024-03-02T00:54:21.771Z,8.02
2024-03-02T00:57:27.320Z,8.04
2024-03-02T01:00:30.132Z,8.10
2024-03-02T01:03:33.910Z,8.18
2024-03-02T01:06:37.453Z,8.17
2024-03-02T01:09:40.284Z,8.17
2024-03-02T01:12:43.027Z,8.25
2024-03-02T01:15:45.829Z,8.22
2024-03-02T01:18:49.209Z,8.17
2024-03-02T01:21:52.259Z,8.11
2024-03-02T01:24:55.570Z,8.10
2024-03-02T01:27:58.286Z,8.15
2024-03-02T01:31:01.143Z,8.12
2024-03-02T01:34:04.227Z,8.08
2024-03-02T01:37:07.460Z,8.04
2024-03-02T01:40:11.270Z,8.12
2024-03-02T01:43:14.069Z,8.03
2024-03-02T01:46:16.885Z,7.98
2024-03-02T01:49:20.066Z,7.91
2024-03-02T01:52:22.831Z,7.91
2024-03-02T01:55:25.952Z,7.89
2024-03-02T01:58:29.126Z,7.87
2024-03-02T02:01:32.447Z,7.86
2024-03-02T02:04:35.220Z,7.86
2024-03-02T02:07:38.519Z,7.84
2024-03-02T02:10:41.399Z,7.82
2024-03-02T02:13:44.189Z,7.84
2024-03-02T02:16:47.233Z,7.86
2024-03-02T02:19:49.989Z,7.91
2024-03-02T02:23:03.891Z,7.95
2024-03-02T02:26:06.769Z,7.99
2024-03-02T02:29:09.423Z,7.97
2024-03-02T02:32:12.183Z,7.90
2024-03-02T02:35:15.205Z,7.90
2024-03-02T02:38:17.981Z,7.92
2024-03-02T02:41:20.763Z,7.90
2024-03-02T02:44:23.398Z,7.90
2024-03-02T02:47:27.540Z,7.92
2024-03-02T02:50:30.376Z,7.89
2024-03-02T02:53:33.007Z,7.89
2024-03-02T02:56:35.673Z,7.94
2024-03-02T02:59:38.424Z,7.93
2024-03-02T03:02:45.107Z,7.86
2024-03-02T03:05:47.851Z,7.83
2024-03-02T03:08:50.706Z,7.78
2024-03-02T03:11:53.446Z,7.80
2024-03-02T03:14:56.610Z,7.77
2024-03-02T03:17:59.371Z,7.71
2024-03-02T03:21:02.171Z,7.65
2024-03-02T03:24:05.273Z,7.66
2024-03-02T03:27:08.280Z,7.71
2024-03-02T03:30:11.630Z,7.68
2024-03-02T03:33:14.878Z,7.65
2024-03-02T03:36:17.608Z,7.70
2024-03-02T03:39:20.301Z,7.68
2024-03-02T03:42:23.074Z,7.65
2024-03-02T03:45:27.290Z,7.72
2024-03-02T03:48:32.130Z,7.75
2024-03-02T03:51:35.355Z,7.78
2024-03-02T03:54:39.771Z,7.75
2024-03-02T03:57:45.544Z,7.74
2024-03-02T04:00:48.324Z,7.74
2024-03-02T04:03:51.093Z,7.73
2024-03-02T04:06:53.807Z,7.76
2024-03-02T04:09:56.720Z,7.74
2024-03-02T04:12:59.489Z,7.77
2024-03-02T04:16:02.275Z,7.79
2024-03-02T04:19:05.334Z,7.78
2024-03-02T04:22:15.417Z,7.68
2024-03-02T04:25:24.130Z,7.73
2024-03-02T04:28:26.850Z,7.76
2024-03-02T04:31:30.086Z,7.74
2024-03-02T04:34:32.764Z,7.74
2024-03-02T04:37:36.062Z,7.70
2024-03-02T04:40:38.730Z,7.69
2024-03-02T04:43:41.626Z,7.66
2024-03-02T04:46:44.397Z,7.63
2024-03-02T04:49:47.529Z,7.56
2024-03-02T04:52:50.228Z,7.55
2024-03-02T04:56:25.070Z,7.56
2024-03-02T04:59:27.911Z,7.56
2024-03-02T05:02:30.526Z,7.57
2024-03-02T05:05:33.237Z,7.68
2024-03-02T05:08:35.990Z,7.68
2024-03-02T05:11:38.734Z,7.71
2024-03-02T05:14:41.428Z,7.68
2024-03-02T05:17:44.523Z,7.70
2024-03-02T05:20:47.338Z,7.76
2024-03-02T05:23:50.006Z,7.79
2024-03-02T05:26:52.661Z,7.84
2024-03-02T05:29:59.511Z,7.79
2024-03-02T05:33:02.539Z,7.78
2024-03-02T05:36:06.483Z,7.70
2024-03-02T05:39:11.444Z,7.62
2024-03-02T05:42:14.128Z,7.68
2024-03-02T05:45:17.925Z,7.71
2024-03-02T05:48:20.821Z,7.78
2024-03-02T05:51:23.527Z,7.70
2024-03-02T05:54:26.248Z,7.86
2024-03-02T05:57:40.314Z,7.84
2024-03-02T06:00:43.697Z,7.83
2024-03-02T06:03:46.484Z,7.85
2024-03-02T06:06:50.858Z,7.85
2024-03-02T06:09:53.918Z,7.80
2024-03-02T06:12:56.817Z,7.85
2024-03-02T06:15:59.817Z,7.80
2024-03-02T06:19:03.582Z,7.87
2024-03-02T06:22:06.915Z,7.97
2024-03-02T06:25:09.860Z,7.89
2024-03-02T06:28:12.688Z,7.88
2024-03-02T06:31:15.511Z,7.93
2024-03-02T06:34:18.747Z,7.93
2024-03-02T06:37:21.457Z,8.01
2024-03-02T06:40:24.118Z,8.04
2024-03-02T06:43:26.880Z,7.89
2024-03-02T06:46:29.568Z,8.02
2024-03-02T06:49:32.202Z,8.27
2024-03-02T06:52:34.863Z,8.30
2024-03-02T06:55:37.633Z,8.20
2024-03-02T06:58:40.330Z,8.13
2024-03-02T07:01:44.077Z,8.17
2024-03-02T07:04:47.062Z,8.17
2024-03-02T07:07:49.798Z,8.21
2024-03-02T07:10:52.466Z,8.19
2024-03-02T07:13:55.208Z,8.17
2024-03-02T07:16:57.951Z,8.31
2024-03-02T07:20:00.955Z,8.39
2024-03-02T07:23:03.814Z,8.40
2024-03-02T07:29:13.301Z,8.33
2024-03-02T07:32:16.209Z,8.27
2024-03-02T07:35:19.422Z,8.38
2024-03-02T07:38:23.199Z,8.28
2024-03-02T07:41:26.652Z,8.40
2024-03-02T07:44:29.366Z,8.28
2024-03-02T07:47:32.137Z,8.33
2024-03-02T07:50:36.281Z,8.29
2024-03-02T07:53:38.964Z,8.24
2024-03-02T07:56:41.696Z,8.26
2024-03-02T07:59:44.698Z,8.34
2024-03-02T08:02:47.627Z,8.38
2024-03-02T08:05:50.300Z,8.36
2024-03-02T08:08:52.997Z,8.12
2024-03-02T08:11:56.006Z,8.27
2024-03-02T08:14:58.766Z,8.13
2024-03-02T08:18:01.568Z,8.16
2024-03-02T08:21:04.578Z,8.35
2024-03-02T08:24:08.002Z,8.54
2024-03-02T08:27:10.721Z,8.61
2024-03-02T08:30:14.180Z,8.68
2024-03-02T08:33:17.062Z,8.81
2024-03-02T08:36:20.852Z,8.98
2024-03-02T08:39:23.778Z,9.14
2024-03-02T08:42:26.921Z,9.24
2024-03-02T08:45:30.015Z,9.27
2024-03-02T08:48:32.846Z,9.18
2024-03-02T08:51:35.739Z,9.37
2024-03-02T08:54:41.709Z,9.44
2024-03-02T08:57:44.721Z,9.80
2024-03-02T09:00:48.709Z,10.07
2024-03-02T09:03:51.867Z,10.19
2024-03-02T09:06:54.674Z,10.37
2024-03-02T09:09:57.678Z,10.49
2024-03-02T09:13:01.310Z,10.80
2024-03-02T09:16:05.414Z,11.16
2024-03-02T09:19:08.809Z,11.38
2024-03-02T09:22:11.574Z,11.47
2024-03-02T09:25:14.604Z,11.60
2024-03-02T09:28:17.636Z,11.85
2024-03-02T09:31:20.776Z,11.74
2024-03-02T09:34:23.924Z,11.84
2024-03-02T09:37:28.000Z,12.24
2024-03-02T09:40:31.018Z,12.13
2024-03-02T09:43:34.033Z,12.43
2024-03-02T09:46:37.761Z,12.53
2024-03-02T09:49:41.363Z,12.71
2024-03-02T09:52:44.671Z,12.94
2024-03-02T09:55:48.361Z,13.15
2024-03-02T09:58:51.410Z,12.94
2024-03-02T10:02:02.354Z,12.88
2024-03-02T10:05:05.582Z,13.04
2024-03-02T10:08:08.522Z,12.81
2024-03-02T10:11:12.195Z,12.59
2024-03-02T10:14:15.235Z,12.66
2024-03-02T10:17:19.444Z,12.48
2024-03-02T10:20:26.656Z,12.37
2024-03-02T10:23:29.373Z,12.47
2024-03-02T10:26:32.244Z,12.65
2024-03-02T10:29:34.973Z,12.73
2024-03-02T10:32:39.189Z,12.85
2024-03-02T10:35:42.281Z,12.99
2024-03-02T10:38:46.643Z,13.33
2024-03-02T10:41:53.350Z,13.16
2024-03-02T10:44:56.740Z,13.64
2024-03-02T10:48:02.037Z,13.29
2024-03-02T10:51:05.734Z,13.94
2024-03-02T10:54:08.417Z,14.02
2024-03-02T10:57:13.736Z,14.04
2024-03-02T11:00:16.694Z,13.71
2024-03-02T11:03:20.107Z,14.04
2024-03-02T11:06:24.050Z,14.47
2024-03-02T11:09:29.960Z,14.74
2024-03-02T11:13:08.194Z,14.83
2024-03-02T11:16:23.605Z,14.12
2024-03-02T11:19:27.485Z,14.53
2024-03-02T11:22:31.164Z,15.74
2024-03-02T11:25:34.133Z,18.39
2024-03-02T11:28:38.174Z,18.28
2024-03-02T11:32:01.767Z,16.76
2024-03-02T11:35:04.940Z,16.08
2024-03-02T11:38:08.486Z,16.73
2024-03-02T11:41:12.493Z,19.15
2024-03-02T11:44:16.335Z,21.48
2024-03-02T11:47:19.399Z,22.13
2024-03-02T11:50:41.443Z,20.43
2024-03-02T11:53:47.419Z,21.72
2024-03-02T11:56:50.166Z,23.95
2024-03-02T11:59:53.305Z,22.15
2024-03-02T12:03:03.312Z,22.42
2024-03-02T12:06:06.322Z,22.22
2024-03-02T12:09:12.901Z,22.46
2024-03-02T12:12:22.205Z,22.86
2024-03-02T12:15:29.286Z,22.13
2024-03-02T12:18:32.142Z,18.55
2024-03-02T12:21:34.961Z,17.25
2024-03-02T12:24:38.660Z,17.09
2024-03-02T12:27:42.007Z,15.67
2024-03-02T12:30:44.935Z,15.11
2024-03-02T12:33:48.029Z,15.01
2024-03-02T12:36:54.167Z,14.66
2024-03-02T12:39:57.179Z,15.23
2024-03-02T12:43:00.211Z,15.29
2024-03-02T12:46:03.505Z,14.50
2024-03-02T12:49:11.182Z,14.91
2024-03-02T12:52:14.720Z,16.98
2024-03-02T12:55:17.951Z,17.35
2024-03-02T12:58:24.329Z,20.00
2024-03-02T13:01:27.552Z,20.96
2024-03-02T13:04:32.176Z,21.49
2024-03-02T13:07:35.542Z,18.79
2024-03-02T13:10:39.275Z,17.83
2024-03-02T13:13:42.278Z,21.02
2024-03-02T13:16:47.878Z,22.77
2024-03-02T13:19:55.320Z,22.53
2024-03-02T13:22:58.556Z,23.07
2024-03-02T13:26:01.354Z,24.82
2024-03-02T13:29:04.187Z,25.39
2024-03-02T13:32:07.149Z,24.35
2024-03-02T13:35:12.482Z,24.85
2024-03-02T13:38:15.353Z,23.90
2024-03-02T13:41:18.051Z,24.36
2024-03-02T13:44:21.139Z,21.71
2024-03-02T13:47:24.045Z,20.62
2024-03-02T13:50:27.002Z,21.95
2024-03-02T13:53:29.981Z,22.75
2024-03-02T13:56:33.877Z,20.75
2024-03-02T13:59:37.274Z,22.56
2024-03-02T14:02:41.091Z,22.08
2024-03-02T14:05:44.742Z,23.90
2024-03-02T14:08:49.460Z,23.01
2024-03-02T14:11:53.000Z,22.50
2024-03-02T14:14:59.347Z,22.70
2024-03-02T14:18:02.222Z,23.67
2024-03-02T14:21:05.856Z,22.73
2024-03-02T14:24:08.702Z,23.27
2024-03-02T14:27:20.459Z,22.35
2024-03-02T14:30:31.333Z,22.54
2024-03-02T14:33:34.256Z,21.96
2024-03-02T14:36:37.214Z,21.91
2024-03-02T14:39:40.752Z,22.21
2024-03-02T14:42:45.320Z,22.29
2024-03-02T14:45:48.255Z,22.61
2024-03-02T14:48:51.419Z,22.85
2024-03-02T14:51:54.509Z,21.03
2024-03-02T14:54:57.353Z,22.11
2024-03-02T14:58:00.154Z,21.63
2024-03-02T15:01:03.231Z,20.38
2024-03-02T15:04:06.737Z,21.20
2024-03-02T15:07:09.669Z,19.91
2024-03-02T15:10:12.591Z,19.75
2024-03-02T15:13:15.687Z,18.71
2024-03-02T15:16:18.552Z,17.33
2024-03-02T15:19:21.465Z,17.31
2024-03-02T15:22:24.164Z,16.17
2024-03-02T15:25:26.883Z,15.77
2024-03-02T15:28:29.637Z,15.54
2024-03-02T15:31:32.685Z,15.06
2024-03-02T15:34:35.585Z,15.04
2024-03-02T15:37:38.393Z,15.04
2024-03-02T15:40:41.271Z,14.99
2024-03-02T15:43:44.277Z,14.83
2024-03-02T15:46:47.311Z,14.72
2024-03-02T15:49:51.049Z,14.65
2024-03-02T15:52:53.806Z,14.54
2024-03-02T15:55:56.518Z,14.29
2024-03-02T15:58:59.675Z,14.16
2024-03-02T16:02:02.630Z,14.06
2024-03-02T16:05:05.797Z,13.91
2024-03-02T16:08:08.681Z,13.55
2024-03-02T16:11:11.517Z,13.34
2024-03-02T16:14:17.512Z,13.18
2024-03-02T16:17:20.621Z,13.07
2024-03-02T16:20:23.443Z,12.98
2024-03-02T16:23:26.156Z,12.91
2024-03-02T16:26:29.062Z,12.81
2024-03-02T16:29:31.875Z,12.72
2024-03-02T16:32:37.660Z,12.65
2024-03-02T16:35:40.405Z,12.58
2024-03-02T16:38:45.001Z,12.49
2024-03-02T16:41:48.284Z,12.36
2024-03-02T16:44:55.851Z,12.28
2024-03-02T16:47:59.083Z,12.18
2024-03-02T16:51:01.991Z,12.05
2024-03-02T16:54:05.261Z,12.01
2024-03-02T16:57:08.428Z,11.96
2024-03-02T17:00:12.156Z,11.89
2024-03-02T17:03:15.081Z,11.85
2024-03-02T17:06:17.726Z,11.73
2024-03-02T17:09:20.356Z,11.66
2024-03-02T17:12:23.047Z,11.60
2024-03-02T17:15:25.719Z,11.57
2024-03-02T17:18:29.195Z,11.50
2024-03-02T17:21:32.480Z,11.45
2024-03-02T17:24:35.201Z,11.33
2024-03-02T17:27:37.906Z,11.30
2024-03-02T17:30:40.650Z,11.34
2024-03-02T17:33:43.640Z,11.32
2024-03-02T17:36:46.420Z,11.28
2024-03-02T17:39:49.329Z,11.24
2024-03-02T17:42:52.358Z,11.20
2024-03-02T17:45:55.344Z,11.13
2024-03-02T17:48:58.533Z,10.96
2024-03-02T17:52:01.759Z,10.93
2024-03-02T17:55:06.029Z,10.97
2024-03-02T17:58:09.077Z,10.94
2024-03-02T18:01:13.168Z,10.92
2024-03-02T18:04:16.313Z,10.87
2024-03-02T18:07:19.142Z,10.92
2024-03-02T18:10:21.923Z,10.88
2024-03-02T18:13:25.135Z,10.87
2024-03-02T18:16:28.361Z,10.78
2024-03-02T18:19:32.874Z,10.70
2024-03-02T18:22:36.362Z,10.52
2024-03-02T18:25:39.939Z,10.25
2024-03-02T18:28:43.023Z,10.12
2024-03-02T18:31:45.810Z,9.98
2024-03-02T18:34:48.755Z,9.85
2024-03-02T18:37:51.858Z,9.79
2024-03-02T18:40:58.883Z,9.68
2024-03-02T18:44:01.666Z,9.58
2024-03-02T18:47:08.105Z,9.41
2024-03-02T18:50:11.682Z,9.47
2024-03-02T18:53:15.163Z,9.55
2024-03-02T18:56:17.980Z,9.40
2024-03-02T18:59:20.908Z,9.15
2024-03-02T19:02:23.809Z,8.99
2024-03-02T19:05:27.286Z,8.94
2024-03-02T19:08:31.712Z,8.85
2024-03-02T19:11:37.550Z,8.81
2024-03-02T19:14:40.487Z,8.78
2024-03-02T19:17:46.628Z,8.91
2024-03-02T19:20:49.486Z,8.91
2024-03-02T19:23:52.599Z,8.82
2024-03-02T19:26:55.461Z,8.77
2024-03-02T19:29:58.775Z,8.77
2024-03-02T19:33:01.611Z,9.03
2024-03-02T19:36:05.558Z,9.31
2024-03-02T19:39:09.922Z,9.46
2024-03-02T19:42:13.017Z,9.40
2024-03-02T19:45:16.047Z,9.35
2024-03-02T19:48:19.187Z,9.44
2024-03-02T19:51:22.181Z,9.76
2024-03-02T19:54:25.074Z,9.83
2024-03-02T19:57:30.472Z,9.76
2024-03-02T20:00:33.589Z,9.77
2024-03-02T20:03:36.725Z,9.80
2024-03-02T20:06:39.880Z,9.81
2024-03-02T20:09:42.951Z,9.79
2024-03-02T20:12:45.776Z,9.79
2024-03-02T20:15:48.930Z,9.79
2024-03-02T20:18:52.391Z,9.84
2024-03-02T20:21:55.082Z,9.88
2024-03-02T20:24:58.168Z,9.85
2024-03-02T20:28:01.368Z,9.82
2024-03-02T20:31:04.675Z,9.74
2024-03-02T20:34:07.919Z,9.67
2024-03-02T20:37:10.719Z,9.61
2024-03-02T20:40:16.305Z,9.54
2024-03-02T20:43:19.234Z,9.48
2024-03-02T20:46:22.003Z,9.47
2024-03-02T20:49:25.171Z,9.41
2024-03-02T20:52:28.208Z,9.33
2024-03-02T20:55:31.212Z,9.25
2024-03-02T20:58:33.877Z,9.20
2024-03-02T21:01:38.313Z,9.10
2024-03-02T21:04:43.294Z,9.00
2024-03-02T21:07:46.290Z,8.88
2024-03-02T21:10:50.102Z,8.76
2024-03-02T21:13:53.009Z,8.68
2024-03-02T21:16:56.031Z,8.59
2024-03-02T21:19:59.031Z,8.58
2024-03-02T21:23:01.888Z,8.58
2024-03-02T21:26:05.042Z,8.48
2024-03-02T21:29:09.013Z,8.47
2024-03-02T21:32:11.783Z,8.42
2024-03-02T21:35:16.163Z,8.40
2024-03-02T21:38:19.181Z,8.43
2024-03-02T21:41:21.962Z,8.46
2024-03-02T21:44:24.897Z,8.43
2024-03-02T21:47:27.805Z,8.50
2024-03-02T21:50:31.797Z,8.45
2024-03-02T21:53:34.737Z,8.43
2024-03-02T21:56:37.667Z,8.41
2024-03-02T21:59:40.530Z,8.37
2024-03-02T22:02:43.262Z,8.36
2024-03-02T22:05:45.909Z,8.40
2024-03-02T22:08:48.641Z,8.33
2024-03-02T22:11:51.509Z,8.31
2024-03-02T22:14:54.280Z,8.31
2024-03-02T22:17:57.042Z,8.34
2024-03-02T22:20:59.933Z,8.38
2024-03-02T22:24:02.697Z,8.43
2024-03-02T22:27:05.630Z,8.40
2024-03-02T22:30:08.757Z,8.37
2024-03-02T22:33:11.850Z,8.38
2024-03-02T22:36:14.719Z,8.37
2024-03-02T22:39:17.774Z,8.38
2024-03-02T22:42:20.474Z,8.39
2024-03-02T22:45:23.142Z,8.42
2024-03-02T22:48:25.884Z,8.44
2024-03-02T22:51:28.783Z,8.45
2024-03-02T22:54:31.637Z,8.45
2024-03-02T22:57:34.498Z,8.42
2024-03-02T23:00:49.020Z,8.41
2024-03-02T23:03:52.405Z,8.46
2024-03-02T23:06:55.163Z,8.46
2024-03-02T23:09:57.996Z,8.49
2024-03-02T23:13:00.963Z,8.47
2024-03-02T23:16:04.543Z,8.49
2024-03-02T23:19:07.428Z,8.50
2024-03-02T23:22:11.566Z,8.45
2024-03-02T23:25:15.890Z,8.43
2024-03-02T23:28:18.753Z,8.41
2024-03-02T23:31:21.676Z,8.48
2024-03-02T23:34:24.571Z,8.48
2024-03-02T23:37:29.193Z,8.46
2024-03-02T23:40:57.405Z,8.44
2024-03-02T23:44:02.416Z,8.42
2024-03-02T23:47:07.021Z,8.45
2024-03-02T23:50:10.282Z,8.41
2024-03-02T23:53:13.178Z,8.36
2024-03-02T23:56:16.004Z,8.38
2024-03-02T23:59:18.833Z,8.39
